Time;durP1;ratioP1;P1;durP2;ratioP2;P2;SDS_P1;SDS_P2;PMS_P1;PMS_P2;Temp;Humidity;BMP_temperature;BMP_pressure;BME280_temperature;BME280_humidity;BME280_pressure;Samples;Min_cycle;Max_cycle;Signal;HPM_P1;HPM_P2
2021/03/15 00:02:07;;;;;;;13.35;2.95;;;;;;;3.31;88.75;98587.34;5065638;28;20111;-70
2021/03/15 00:04:33;;;;;;;14.80;3.70;;;;;;;3.32;88.80;98589.06;5065322;28;20034;-70
2021/03/15 00:06:58;;;;;;;10.98;2.47;;;;;;;3.31;88.95;98588.19;5047711;28;20047;-70
2021/03/15 00:09:24;;;;;;;21.45;4.15;;;;;;;3.30;88.67;98591.63;5065378;28;20051;-71
2021/03/15 00:11:49;;;;;;;15.32;2.35;;;;;;;3.25;88.79;98590.81;5064594;28;20024;-71
2021/03/15 00:14:14;;;;;;;18.40;3.95;;;;;;;3.23;88.82;98587.41;5065426;28;20076;-71
2021/03/15 00:16:40;;;;;;;15.57;2.55;;;;;;;3.26;88.62;98586.56;5065359;28;20017;-69
2021/03/15 00:19:05;;;;;;;12.60;2.63;;;;;;;3.22;88.67;98583.16;5065193;28;20024;-70
2021/03/15 00:21:30;;;;;;;20.75;3.33;;;;;;;3.19;88.74;98572.91;5065371;28;20084;-70
2021/03/15 00:23:56;;;;;;;15.57;2.75;;;;;;;3.15;88.88;98572.09;5065151;28;20033;-70
2021/03/15 00:26:21;;;;;;;13.93;3.25;;;;;;;3.24;88.81;98575.44;5047071;28;20024;-69
2021/03/15 00:28:46;;;;;;;17.02;3.67;;;;;;;3.24;89.02;98573.75;5064902;28;20064;-69
2021/03/15 00:31:12;;;;;;;17.35;3.25;;;;;;;3.25;89.00;98570.31;5064943;28;20025;-69
2021/03/15 00:33:37;;;;;;;13.55;3.45;;;;;;;3.32;88.84;98571.94;5064887;28;20076;-68
2021/03/15 00:36:03;;;;;;;19.90;4.07;;;;;;;3.29;88.90;98564.28;5065134;28;20047;-69
2021/03/15 00:38:28;;;;;;;17.60;4.10;;;;;;;3.33;88.89;98565.09;5064786;28;20033;-69
2021/03/15 00:40:53;;;;;;;23.05;4.10;;;;;;;3.36;89.00;98567.63;5046918;28;20017;-70
2021/03/15 00:43:19;;;;;;;25.42;5.25;;;;;;;3.30;89.07;98560.88;5064754;28;20550;-70
2021/03/15 00:45:44;;;;;;;40.33;7.28;;;;;;;3.37;89.03;98556.50;5046713;28;20407;-69
2021/03/15 00:48:09;;;;;;;37.47;5.57;;;;;;;3.45;88.84;98566.72;5064480;28;20021;-70
2021/03/15 00:50:42;;;;;;;29.02;6.35;;;;;;;3.39;89.25;98570.19;5064630;28;20025;-69
2021/03/15 00:53:09;;;;;;;51.88;7.00;;;;;;;3.44;89.04;98563.31;5064594;28;20055;-69
2021/03/15 00:55:36;;;;;;;42.90;7.63;;;;;;;3.45;89.30;98567.56;5064458;28;20024;-69
2021/03/15 00:58:01;;;;;;;39.38;8.65;;;;;;;3.41;89.51;98558.19;5064396;28;20029;-69
2021/03/15 01:00:30;;;;;;;36.17;6.70;;;;;;;3.47;89.28;98567.53;5064641;28;20039;-68
2021/03/15 01:02:55;;;;;;;43.90;7.53;;;;;;;3.48;89.41;98569.25;5064150;28;20024;-67
2021/03/15 01:05:25;;;;;;;39.83;7.50;;;;;;;3.50;89.27;98564.13;5064380;28;20460;-68
2021/03/15 01:07:51;;;;;;;37.28;6.20;;;;;;;3.46;89.51;98561.59;5046494;28;20035;-69
2021/03/15 01:10:20;;;;;;;79.85;9.73;;;;;;;3.49;89.64;98564.97;5064298;28;20106;-69
2021/03/15 01:12:46;;;;;;;57.20;7.53;;;;;;;3.53;89.68;98561.53;5064260;28;20071;-69
2021/03/15 01:15:12;;;;;;;57.67;7.95;;;;;;;3.59;89.72;98567.41;5064172;28;20025;-69
2021/03/15 01:17:38;;;;;;;57.28;8.90;;;;;;;3.62;89.52;98569.13;5064063;28;20047;-69
2021/03/15 01:20:05;;;;;;;37.85;7.47;;;;;;;3.61;89.47;98566.56;5063910;28;20029;-69
2021/03/15 01:22:30;;;;;;;41.70;6.47;;;;;;;3.62;89.49;98564.00;5045638;28;20082;-69
2021/03/15 01:24:56;;;;;;;44.83;6.72;;;;;;;3.63;89.66;98572.53;5064261;28;20435;-68
2021/03/15 01:27:24;;;;;;;34.63;7.22;;;;;;;3.64;89.77;98559.72;5063756;28;20512;-68
2021/03/15 01:29:50;;;;;;;45.60;8.48;;;;;;;3.66;89.74;98562.25;5063995;28;20155;-68
2021/03/15 01:32:15;;;;;;;50.00;8.52;;;;;;;3.62;89.86;98553.72;5063811;28;20020;-67
2021/03/15 01:34:41;;;;;;;55.08;8.73;;;;;;;3.64;89.77;98554.56;5063469;28;20043;-66
2021/03/15 01:37:06;;;;;;;31.40;7.70;;;;;;;3.64;89.88;98559.72;5063888;28;20021;-67
2021/03/15 01:39:32;;;;;;;43.50;8.73;;;;;;;3.68;90.02;98563.94;5063716;28;20420;-67
2021/03/15 01:41:59;;;;;;;42.08;9.15;;;;;;;3.67;89.86;98562.25;5062811;28;20024;-67
2021/03/15 01:44:25;;;;;;;48.95;8.18;;;;;;;3.68;89.82;98558.78;5062706;28;20035;-68
2021/03/15 01:46:50;;;;;;;56.80;8.55;;;;;;;3.71;89.82;98558.75;5063572;28;20036;-68
2021/03/15 01:49:16;;;;;;;54.67;9.30;;;;;;;3.71;90.02;98560.47;5063520;28;20017;-67
2021/03/15 01:51:41;;;;;;;79.35;12.68;;;;;;;3.72;89.90;98557.88;5063706;28;20025;-67
2021/03/15 01:54:07;;;;;;;67.60;11.98;;;;;;;3.76;89.78;98563.84;5063468;28;20408;-68
2021/03/15 01:56:36;;;;;;;31.13;7.20;;;;;;;3.80;89.74;98564.69;5063604;28;20040;-67
2021/03/15 01:59:02;;;;;;;47.55;8.88;;;;;;;3.70;89.88;98554.50;5063407;28;20047;-68
2021/03/15 02:01:27;;;;;;;58.20;9.70;;;;;;;3.74;89.68;98557.88;5063541;28;20021;-67
2021/03/15 02:03:52;;;;;;;54.03;9.82;;;;;;;3.70;89.71;98554.50;5045057;28;20039;-67
2021/03/15 02:06:18;;;;;;;45.42;7.35;;;;;;;3.75;89.76;98563.88;5063411;28;20025;-67
2021/03/15 02:08:43;;;;;;;62.40;9.52;;;;;;;3.74;89.89;98562.19;5063195;28;20115;-67
2021/03/15 02:11:26;;;;;;;42.20;7.78;;;;;;;3.77;89.94;98562.13;5045422;28;20062;-66
2021/03/15 02:14:07;;;;;;;50.53;7.63;;;;;;;3.78;89.73;98558.69;5063515;28;20035;-66
2021/03/15 02:16:50;;;;;;;48.67;8.27;;;;;;;3.76;89.89;98561.28;5063378;28;20028;-66
2021/03/15 02:19:52;;;;;;;35.05;7.05;;;;;;;3.79;89.86;98557.81;5062986;28;20049;-66
2021/03/15 02:22:31;;;;;;;49.33;9.10;;;;;;;3.75;89.87;98556.16;5045219;28;20398;-66
2021/03/15 02:24:59;;;;;;;35.80;6.63;;;;;;;3.74;89.81;98549.34;5063250;28;20025;-66
2021/03/15 02:28:02;;;;;;;38.75;6.10;;;;;;;3.74;89.76;98550.16;5063096;28;20049;-66
2021/03/15 02:30:33;;;;;;;26.65;5.47;;;;;;;3.73;89.79;98553.63;5063227;28;20025;-67
2021/03/15 02:33:36;;;;;;;16.02;4.82;;;;;;;3.69;89.52;98557.09;5063072;28;20028;-66
2021/03/15 02:36:04;;;;;;;20.45;3.75;;;;;;;3.52;89.35;98549.53;5066395;28;20457;-66
2021/03/15 02:38:35;;;;;;;19.50;4.80;;;;;;;3.52;89.22;98562.38;5066876;28;20029;-65
2021/03/15 02:41:03;;;;;;;18.63;4.57;;;;;;;3.47;89.31;98562.41;5067347;28;20025;-67
2021/03/15 02:43:47;;;;;;;19.25;3.90;;;;;;;3.36;89.61;98562.50;5067001;28;20021;-67
2021/03/15 02:46:19;;;;;;;21.17;3.63;;;;;;;3.32;89.44;98559.13;5067455;28;20017;-68
2021/03/15 02:48:46;;;;;;;17.15;3.72;;;;;;;3.38;89.62;98571.06;5066879;28;20024;-68
2021/03/15 02:51:13;;;;;;;17.90;4.18;;;;;;;3.45;89.47;98574.41;5066845;28;20033;-67
2021/03/15 02:53:43;;;;;;;29.15;3.95;;;;;;;3.41;89.51;98572.72;5067104;28;20021;-67
2021/03/15 02:56:15;;;;;;;32.25;3.58;;;;;;;3.42;89.32;98564.19;5067811;28;20028;-69
2021/03/15 02:58:43;;;;;;;18.15;3.58;;;;;;;3.39;89.44;98559.91;5066832;28;20277;-68
2021/03/15 03:01:09;;;;;;;11.52;2.63;;;;;;;3.37;89.40;98566.75;5066932;28;20104;-67
2021/03/15 03:03:37;;;;;;;20.40;3.28;;;;;;;3.37;89.41;98569.34;5066432;28;20485;-67
2021/03/15 03:06:04;;;;;;;22.30;3.10;;;;;;;3.38;89.53;98565.06;5066818;28;20025;-68
2021/03/15 03:08:32;;;;;;;17.13;3.50;;;;;;;3.40;89.56;98573.59;5066478;28;20032;-68
2021/03/15 03:10:57;;;;;;;30.73;5.18;;;;;;;3.42;89.50;98579.59;5067007;28;20050;-69
2021/03/15 03:13:25;;;;;;;24.10;4.97;;;;;;;3.42;89.63;98577.84;5066491;28;20021;-68
2021/03/15 03:15:51;;;;;;;14.80;3.08;;;;;;;3.38;89.46;98576.19;5066146;28;20050;-69
2021/03/15 03:18:22;;;;;;;16.92;4.07;;;;;;;3.30;89.19;98583.09;5065865;28;20080;-67
2021/03/15 03:20:55;;;;;;;17.48;3.10;;;;;;;3.21;89.37;98579.72;5066410;28;20040;-69
2021/03/15 03:23:22;;;;;;;20.02;3.50;;;;;;;3.16;89.30;98580.63;5066207;28;20052;-69
2021/03/15 03:25:49;;;;;;;22.83;3.85;;;;;;;3.17;89.68;98574.63;5066461;28;20035;-68
2021/03/15 03:28:16;;;;;;;26.27;4.45;;;;;;;3.26;89.66;98582.25;5065920;28;20063;-68
2021/03/15 03:30:44;;;;;;;23.80;4.72;;;;;;;3.25;89.81;98587.41;5066550;28;20044;-68
2021/03/15 03:33:12;;;;;;;24.85;5.03;;;;;;;3.24;89.86;98585.69;5048101;28;20023;-66
2021/03/15 03:35:37;;;;;;;27.67;5.65;;;;;;;3.28;89.90;98588.22;5065976;28;20021;-68
2021/03/15 03:38:03;;;;;;;21.40;4.53;;;;;;;3.34;90.00;98589.88;5066215;28;20027;-68
2021/03/15 03:40:29;;;;;;;24.90;5.13;;;;;;;3.37;90.00;98592.41;5048146;28;20203;-68
2021/03/15 03:42:54;;;;;;;30.83;6.03;;;;;;;3.40;89.92;98589.00;5065910;28;20053;-68
2021/03/15 03:45:21;;;;;;;33.35;5.90;;;;;;;3.40;90.15;98596.69;5066189;28;20381;-68
2021/03/15 03:47:46;;;;;;;43.42;5.93;;;;;;;3.44;90.00;98590.66;5064713;28;20060;-67
2021/03/15 03:50:14;;;;;;;35.95;5.00;;;;;;;3.49;90.14;98595.75;5065629;28;20025;-68
2021/03/15 03:53:11;;;;;;;37.58;7.00;;;;;;;3.57;90.07;98599.97;5065894;28;20017;-68
2021/03/15 03:55:58;;;;;;;19.42;4.13;;;;;;;3.59;90.03;98594.81;5057694;28;20060;-67
2021/03/15 03:58:24;;;;;;;23.92;5.90;;;;;;;3.57;89.96;98596.53;5065631;28;20032;-67
2021/03/15 04:00:54;;;;;;;36.33;6.32;;;;;;;3.57;89.85;98601.66;5065671;28;20033;-68
2021/03/15 04:03:21;;;;;;;28.70;4.97;;;;;;;3.56;89.96;98600.81;5065394;28;20036;-66
2021/03/15 04:05:52;;;;;;;34.90;6.50;;;;;;;3.58;89.91;98603.34;5065487;28;20021;-67
2021/03/15 04:08:26;;;;;;;30.42;5.95;;;;;;;3.59;89.94;98599.94;5065578;28;20029;-67
2021/03/15 04:10:54;;;;;;;25.25;5.72;;;;;;;3.64;89.93;98605.91;5065738;28;20025;-68
2021/03/15 04:13:23;;;;;;;44.75;6.65;;;;;;;3.64;89.99;98611.03;5065479;28;20041;-68
2021/03/15 04:15:49;;;;;;;39.30;5.80;;;;;;;3.60;89.81;98599.06;5065575;28;20055;-68
2021/03/15 04:18:17;;;;;;;39.95;7.47;;;;;;;3.56;90.00;98603.38;5064907;28;20021;-67
2021/03/15 04:20:44;;;;;;;34.35;5.88;;;;;;;3.55;90.00;98611.09;5065625;28;20079;-67
2021/03/15 04:23:14;;;;;;;34.63;6.00;;;;;;;3.54;90.14;98609.41;5065186;28;20029;-67
2021/03/15 04:25:42;;;;;;;31.48;6.40;;;;;;;3.52;89.96;98611.97;5065202;28;20060;-68
2021/03/15 04:28:09;;;;;;;38.28;6.28;;;;;;;3.52;90.03;98608.56;5064970;28;20037;-68
2021/03/15 04:30:37;;;;;;;32.28;5.47;;;;;;;3.51;90.00;98619.69;5065069;28;20037;-69
2021/03/15 04:33:03;;;;;;;27.45;5.35;;;;;;;3.47;89.90;98618.84;5065044;28;20416;-68
2021/03/15 04:35:31;;;;;;;42.08;5.97;;;;;;;3.43;89.96;98618.06;5064927;28;20658;-68
2021/03/15 04:38:02;;;;;;;21.77;4.75;;;;;;;3.36;89.97;98624.06;5064716;28;20385;-69
2021/03/15 04:40:29;;;;;;;20.15;4.25;;;;;;;3.34;89.84;98628.34;5064804;28;20081;-69
2021/03/15 04:42:59;;;;;;;39.38;4.45;;;;;;;3.28;90.03;98625.84;5064781;28;20378;-69
2021/03/15 04:45:29;;;;;;;19.85;4.15;;;;;;;3.29;89.96;98627.56;5047174;28;20032;-69
2021/03/15 04:47:57;;;;;;;19.83;4.07;;;;;;;3.29;90.00;98630.13;5064766;28;20044;-70
2021/03/15 04:50:23;;;;;;;23.08;3.90;;;;;;;3.30;89.83;98640.38;5064303;28;20473;-69
2021/03/15 04:52:50;;;;;;;22.58;4.10;;;;;;;3.31;90.07;98638.63;5065024;28;20021;-69
2021/03/15 04:55:16;;;;;;;27.65;3.88;;;;;;;3.28;89.99;98648.94;5064705;28;20102;-69
2021/03/15 04:57:43;;;;;;;23.15;3.78;;;;;;;3.21;90.02;98638.72;5064080;28;20033;-69
2021/03/15 05:00:12;;;;;;;18.30;3.35;;;;;;;3.26;90.14;98645.53;5064599;28;20025;-70
2021/03/15 05:02:39;;;;;;;16.83;3.67;;;;;;;3.22;90.14;98635.31;5064344;28;20017;-69
2021/03/15 05:05:07;;;;;;;27.20;3.90;;;;;;;3.32;90.19;98650.63;5064053;28;20049;-69
2021/03/15 05:07:34;;;;;;;26.90;5.22;;;;;;;3.37;90.08;98659.13;5064257;28;20435;-70
2021/03/15 05:10:02;;;;;;;28.40;3.70;;;;;;;3.40;90.10;98658.25;5064373;28;20345;-69
2021/03/15 05:12:27;;;;;;;26.15;3.90;;;;;;;3.42;90.12;98656.53;5064294;28;20024;-69
2021/03/15 05:14:55;;;;;;;13.23;2.63;;;;;;;3.43;89.99;98663.38;5064287;28;20088;-68
2021/03/15 05:17:21;;;;;;;24.23;3.72;;;;;;;3.43;89.76;98668.50;5064119;28;20080;-68
2021/03/15 05:19:47;;;;;;;24.38;3.38;;;;;;;3.41;89.75;98665.94;5063842;28;20032;-69
2021/03/15 05:22:13;;;;;;;16.92;3.58;;;;;;;3.35;89.79;98671.13;5064036;28;20103;-69
2021/03/15 05:24:40;;;;;;;21.23;3.25;;;;;;;3.31;89.85;98674.56;5063965;28;20377;-69
2021/03/15 05:27:06;;;;;;;11.73;3.63;;;;;;;3.36;89.92;98675.38;5063788;28;20048;-67
2021/03/15 05:29:34;;;;;;;25.55;4.13;;;;;;;3.33;89.93;98677.97;5064012;28;20028;-68
2021/03/15 05:32:01;;;;;;;18.95;5.05;;;;;;;3.37;90.04;98689.06;5063951;28;20084;-68
2021/03/15 05:34:28;;;;;;;28.67;4.07;;;;;;;3.39;90.14;98687.31;5063679;28;20052;-68
2021/03/15 05:36:56;;;;;;;19.40;3.80;;;;;;;3.42;90.13;98690.72;5063779;28;20055;-69
2021/03/15 05:39:22;;;;;;;19.45;3.70;;;;;;;3.44;89.94;98688.16;5063795;28;20025;-67
2021/03/15 05:42:07;;;;;;;27.27;4.43;;;;;;;3.46;90.03;98689.88;5062908;28;20036;-68
2021/03/15 05:45:14;;;;;;;18.60;3.78;;;;;;;3.50;89.98;98702.66;5062856;28;20029;-67
2021/03/15 05:48:17;;;;;;;24.55;5.18;;;;;;;3.54;89.98;98705.19;5062839;28;20044;-68
2021/03/15 05:51:25;;;;;;;17.45;3.60;;;;;;;3.53;90.06;98708.59;5063383;28;20025;-68
2021/03/15 05:54:35;;;;;;;22.58;4.40;;;;;;;3.52;90.04;98708.63;4962020;29;20054;-68
2021/03/15 05:57:24;;;;;;;21.52;4.53;;;;;;;3.51;90.03;98712.06;4942427;29;20040;-67
2021/03/15 06:00:23;;;;;;;28.92;5.03;;;;;;;3.49;89.88;98716.34;4942226;29;20565;-71
2021/03/15 06:03:07;;;;;;;22.10;4.57;;;;;;;3.44;89.72;98717.22;4942370;29;20039;-68
2021/03/15 06:05:35;;;;;;;37.40;6.32;;;;;;;3.38;89.71;98722.41;4942189;29;20035;-67
2021/03/15 06:08:07;;;;;;;16.00;4.40;;;;;;;3.33;89.84;98721.56;4943408;29;20127;-66
2021/03/15 06:10:35;;;;;;;68.20;7.60;;;;;;;3.30;89.82;98719.91;4942286;29;20139;-67
2021/03/15 06:13:10;;;;;;;157.43;17.73;;;;;;;3.27;89.84;98729.31;4943492;29;20563;-66
2021/03/15 06:15:38;;;;;;;175.93;16.92;;;;;;;3.21;89.96;98731.03;4943776;29;20089;-67
2021/03/15 06:18:05;;;;;;;184.98;18.13;;;;;;;3.20;90.06;98731.06;4943404;29;20210;-67
2021/03/15 06:20:32;;;;;;;107.20;11.70;;;;;;;3.14;90.01;98738.78;4943138;29;20036;-67
2021/03/15 06:23:01;;;;;;;98.90;10.65;;;;;;;3.11;90.02;98747.34;4943369;29;20040;-66
2021/03/15 06:25:28;;;;;;;24.02;6.38;;;;;;;3.10;89.94;98745.63;4943347;29;20052;-68
2021/03/15 06:27:54;;;;;;;59.55;7.78;;;;;;;3.06;89.99;98757.63;4943131;29;20047;-67
2021/03/15 06:30:21;;;;;;;27.50;5.75;;;;;;;2.98;89.86;98751.69;4991113;28;20100;-67
2021/03/15 06:32:53;;;;;;;24.58;4.65;;;;;;;2.90;90.05;98756.84;5034766;28;20054;-66
2021/03/15 06:35:22;;;;;;;92.80;9.02;;;;;;;2.88;89.99;98747.44;5063015;28;20032;-67
2021/03/15 06:37:48;;;;;;;29.67;5.05;;;;;;;2.83;89.96;98770.50;5063289;28;20021;-67
2021/03/15 06:40:14;;;;;;;10.60;4.05;;;;;;;2.79;89.77;98771.41;5063364;28;20402;-66
2021/03/15 06:42:41;;;;;;;15.48;3.35;;;;;;;2.73;89.93;98775.66;5045098;28;20029;-66
2021/03/15 06:45:14;;;;;;;16.02;3.65;;;;;;;2.73;89.97;98777.41;5063548;28;20017;-66
2021/03/15 06:47:43;;;;;;;19.35;3.65;;;;;;;2.70;89.86;98785.94;5045421;28;20025;-66
2021/03/15 06:50:11;;;;;;;11.13;3.67;;;;;;;2.68;89.87;98794.50;5063044;28;20047;-66
2021/03/15 06:52:51;;;;;;;11.63;3.90;;;;;;;2.65;89.99;98795.34;5063254;28;20013;-67
2021/03/15 06:55:26;;;;;;;5.95;3.00;;;;;;;2.63;90.07;98798.75;5045152;28;20055;-66
2021/03/15 06:57:52;;;;;;;13.18;3.33;;;;;;;2.58;90.12;98798.78;5063267;28;20028;-67
2021/03/15 07:00:24;;;;;;;11.68;3.78;;;;;;;2.56;89.87;98808.16;5063216;28;20036;-66
2021/03/15 07:02:56;;;;;;;14.38;3.40;;;;;;;2.51;89.99;98812.47;5062550;28;20272;-66
2021/03/15 07:05:22;;;;;;;13.18;3.15;;;;;;;2.41;89.94;98809.88;5043951;28;20112;-66
2021/03/15 07:07:49;;;;;;;11.80;3.30;;;;;;;2.38;89.71;98819.31;5062015;28;20017;-66
2021/03/15 07:10:17;;;;;;;6.00;1.83;;;;;;;2.34;90.13;98826.13;5062201;28;20429;-67
2021/03/15 07:12:42;;;;;;;12.27;3.53;;;;;;;2.33;90.03;98830.38;5062869;28;20028;-67
2021/03/15 07:15:09;;;;;;;11.15;3.50;;;;;;;2.29;90.02;98828.69;5044969;28;20024;-67
2021/03/15 07:17:35;;;;;;;4.47;2.15;;;;;;;2.29;90.00;98841.50;5062853;28;20017;-67
2021/03/15 07:20:00;;;;;;;5.32;1.33;;;;;;;2.25;90.00;98844.06;5062481;28;20033;-66
2021/03/15 07:22:28;;;;;;;5.18;2.13;;;;;;;2.19;89.95;98850.03;5066113;28;20085;-66
2021/03/15 07:25:03;;;;;;;3.33;1.27;;;;;;;2.17;89.92;98855.13;5066386;28;20025;-66
2021/03/15 07:27:33;;;;;;;3.30;1.58;;;;;;;2.06;89.90;98857.69;5066284;28;20365;-66
2021/03/15 07:30:31;;;;;;;3.65;1.48;;;;;;;2.04;89.97;98868.78;5048531;28;20557;-66
2021/03/15 07:33:01;;;;;;;5.00;2.05;;;;;;;2.01;90.02;98872.22;5066611;28;20052;-66
2021/03/15 07:35:38;;;;;;;9.15;1.55;;;;;;;2.02;90.06;98878.16;5048333;28;20025;-66
2021/03/15 07:38:05;;;;;;;7.55;2.58;;;;;;;2.01;90.34;98892.69;5066396;28;20096;-65
2021/03/15 07:40:35;;;;;;;7.03;3.10;;;;;;;2.06;90.42;98895.25;5066506;28;20025;-65
2021/03/15 07:43:08;;;;;;;10.73;3.95;;;;;;;2.09;90.32;98895.25;5048342;28;20097;-66
2021/03/15 07:45:35;;;;;;;7.45;3.90;;;;;;;2.09;90.34;98895.25;5066361;28;20029;-66
2021/03/15 07:48:14;;;;;;;7.15;3.80;;;;;;;2.10;90.41;98896.94;5066030;28;20021;-65
2021/03/15 07:50:42;;;;;;;7.32;3.30;;;;;;;2.11;90.32;98901.22;5065882;28;20088;-66
2021/03/15 07:53:07;;;;;;;7.80;4.38;;;;;;;2.10;90.33;98912.31;5066039;28;20246;-66
2021/03/15 07:55:38;;;;;;;9.98;4.22;;;;;;;2.08;90.36;98920.00;5066017;28;20025;-66
2021/03/15 07:58:32;;;;;;;8.00;4.40;;;;;;;2.07;90.13;98925.13;5065867;28;20032;-65
2021/03/15 08:00:59;;;;;;;9.73;4.13;;;;;;;2.10;90.38;98922.56;5066277;28;20373;-65
2021/03/15 08:03:26;;;;;;;9.27;3.95;;;;;;;2.14;90.52;98926.00;5047676;28;20155;-65
2021/03/15 08:05:54;;;;;;;7.18;3.38;;;;;;;2.27;90.55;98934.56;5066033;28;20016;-66
2021/03/15 08:08:19;;;;;;;7.60;3.75;;;;;;;2.37;90.73;98941.38;5065794;28;20354;-66
2021/03/15 08:10:45;;;;;;;7.68;3.40;;;;;;;2.45;90.76;98939.69;5065829;28;20047;-66
2021/03/15 08:13:13;;;;;;;9.85;4.18;;;;;;;2.56;90.75;98955.06;5065798;28;20032;-66
2021/03/15 08:15:40;;;;;;;7.32;3.50;;;;;;;2.64;91.00;98952.50;5065719;28;20024;-66
2021/03/15 08:18:09;;;;;;;9.27;4.22;;;;;;;2.79;90.78;98959.34;5065574;28;20032;-66
2021/03/15 08:20:43;;;;;;;4.82;2.95;;;;;;;2.92;90.72;98967.91;5065308;28;20416;-66
2021/03/15 08:23:08;;;;;;;4.88;2.72;;;;;;;3.02;90.77;98970.47;5065547;28;20115;-66
2021/03/15 08:25:36;;;;;;;4.43;2.83;;;;;;;3.09;90.84;98975.56;5065738;28;20036;-66
2021/03/15 08:28:03;;;;;;;4.43;2.30;;;;;;;3.24;90.94;98981.56;5065202;28;20049;-66
2021/03/15 08:30:31;;;;;;;5.13;2.75;;;;;;;3.31;90.63;98977.25;5065432;28;20033;-66
2021/03/15 08:32:58;;;;;;;4.18;2.50;;;;;;;3.37;90.59;98994.34;5046769;28;20052;-66
2021/03/15 08:35:24;;;;;;;3.08;1.60;;;;;;;3.51;90.63;98986.63;5064955;28;20088;-67
2021/03/15 08:37:59;;;;;;;3.08;1.88;;;;;;;3.56;90.56;98990.03;5065134;28;20165;-66
2021/03/15 08:40:39;;;;;;;4.60;1.77;;;;;;;3.52;90.40;98998.56;5065307;28;20025;-66
2021/03/15 08:43:25;;;;;;;2.95;1.00;;;;;;;3.50;90.20;99005.44;5065134;28;20097;-66
2021/03/15 08:45:53;;;;;;;2.38;1.08;;;;;;;3.42;89.69;99018.28;5065197;28;20040;-66
2021/03/15 08:48:39;;;;;;;2.35;0.88;;;;;;;3.40;89.74;99022.56;5065096;28;20040;-67
2021/03/15 08:51:11;;;;;;;3.83;0.95;;;;;;;3.37;89.85;99028.53;5064800;28;20039;-66
2021/03/15 08:53:37;;;;;;;2.78;1.70;;;;;;;3.27;89.57;99031.97;5065076;28;20028;-67
2021/03/15 08:56:12;;;;;;;1.25;0.70;;;;;;;3.23;89.45;99036.25;5064889;28;20025;-67
2021/03/15 08:58:44;;;;;;;1.13;0.70;;;;;;;3.19;89.73;99032.84;5064772;28;20451;-66
2021/03/15 09:01:12;;;;;;;1.63;0.70;;;;;;;3.20;89.75;99033.69;5064857;28;20108;-66
2021/03/15 09:03:58;;;;;;;1.48;0.93;;;;;;;3.27;89.88;99037.13;5064566;28;20048;-66
2021/03/15 09:06:39;;;;;;;1.50;0.75;;;;;;;3.32;89.74;99045.66;5047388;28;20558;-63
2021/03/15 09:09:07;;;;;;;2.97;1.08;;;;;;;3.40;89.90;99063.63;5064544;28;20021;-65
2021/03/15 09:11:38;;;;;;;1.70;1.20;;;;;;;3.40;89.54;99056.78;5064725;28;20036;-66
2021/03/15 09:14:25;;;;;;;2.87;1.70;;;;;;;3.44;89.67;99066.19;5064484;28;20020;-66
2021/03/15 09:16:58;;;;;;;1.77;1.15;;;;;;;3.51;89.76;99072.16;5064578;28;20258;-66
2021/03/15 09:19:28;;;;;;;2.40;1.50;;;;;;;3.61;89.84;99079.84;5064146;28;20064;-66
2021/03/15 09:21:56;;;;;;;1.70;1.30;;;;;;;3.79;89.59;99081.50;5064524;28;20021;-66
2021/03/15 09:24:44;;;;;;;1.77;1.50;;;;;;;3.77;89.61;99080.69;5064376;28;20025;-66
2021/03/15 09:27:32;;;;;;;2.35;1.48;;;;;;;3.86;89.87;99088.34;5063822;28;20267;-66
2021/03/15 09:30:00;;;;;;;1.73;1.17;;;;;;;3.99;89.83;99098.59;5064402;28;20025;-66
2021/03/15 09:32:28;;;;;;;3.45;1.20;;;;;;;4.11;89.79;99098.56;5064179;28;20029;-65
2021/03/15 09:34:56;;;;;;;1.13;0.70;;;;;;;4.17;89.16;99097.69;5063934;28;20017;-65
2021/03/15 09:37:22;;;;;;;1.20;0.98;;;;;;;4.19;88.65;99106.22;5064019;28;20037;-65
2021/03/15 09:39:48;;;;;;;2.13;0.98;;;;;;;4.24;88.82;99101.94;5063894;28;20021;-64
2021/03/15 09:42:19;;;;;;;1.55;0.90;;;;;;;4.40;88.83;99105.31;5064169;28;20048;-64
2021/03/15 09:44:44;;;;;;;0.90;0.60;;;;;;;4.53;89.33;99098.41;5064181;28;20025;-66
2021/03/15 09:47:13;;;;;;;2.83;0.90;;;;;;;4.65;88.95;99114.63;5064074;28;20388;-66
2021/03/15 09:49:44;;;;;;;2.92;1.60;;;;;;;4.63;88.82;99114.66;5063769;28;20243;-66
2021/03/15 09:52:12;;;;;;;3.22;1.00;;;;;;;4.42;88.23;99121.59;5063968;28;20051;-64
2021/03/15 09:54:39;;;;;;;4.47;1.50;;;;;;;4.25;88.38;99118.22;5063767;28;20418;-65
2021/03/15 09:57:04;;;;;;;3.90;1.70;;;;;;;4.22;88.75;99132.78;5063821;28;20029;-65
2021/03/15 09:59:30;;;;;;;2.08;1.00;;;;;;;4.21;88.80;99136.22;5063735;28;20115;-66
2021/03/15 10:01:55;;;;;;;3.13;1.20;;;;;;;4.21;88.80;99133.66;5063753;28;20028;-66
2021/03/15 10:04:21;;;;;;;2.45;1.77;;;;;;;4.13;87.99;99148.22;5045475;28;20028;-66
2021/03/15 10:06:46;;;;;;;4.28;1.83;;;;;;;3.89;87.96;99143.97;5063638;28;20031;-65
2021/03/15 10:09:12;;;;;;;3.47;1.67;;;;;;;3.74;88.40;99142.28;5063489;28;20112;-65
2021/03/15 10:11:43;;;;;;;4.32;1.60;;;;;;;3.64;88.45;99164.53;5063469;28;20025;-66
2021/03/15 10:14:09;;;;;;;2.03;1.27;;;;;;;3.59;88.52;99160.25;5063507;28;20021;-66
2021/03/15 10:16:35;;;;;;;3.20;1.85;;;;;;;3.54;88.46;99158.53;5063661;28;20028;-65
2021/03/15 10:19:00;;;;;;;2.67;1.88;;;;;;;3.48;88.70;99156.84;5063319;28;20084;-66
2021/03/15 10:21:30;;;;;;;5.10;1.80;;;;;;;3.43;88.96;99161.97;5063641;28;20072;-65
2021/03/15 10:23:55;;;;;;;2.45;1.20;;;;;;;3.43;88.98;99158.53;5063427;28;20037;-66
2021/03/15 10:26:21;;;;;;;2.60;1.58;;;;;;;3.41;88.83;99165.38;5063543;28;20536;-66
2021/03/15 10:28:48;;;;;;;2.35;1.40;;;;;;;3.33;89.01;99157.69;5063367;28;20052;-66
2021/03/15 10:31:14;;;;;;;3.22;1.83;;;;;;;3.39;89.25;99161.94;5063635;28;20036;-66
2021/03/15 10:33:47;;;;;;;2.83;1.95;;;;;;;3.49;89.23;99166.25;5063122;28;20037;-67
2021/03/15 10:36:22;;;;;;;2.58;1.63;;;;;;;3.50;89.35;99169.69;5063364;28;20017;-67
2021/03/15 10:38:48;;;;;;;2.50;1.20;;;;;;;3.66;89.60;99183.38;5063160;28;20021;-69
2021/03/15 10:41:15;;;;;;;4.38;1.63;;;;;;;3.88;90.27;99181.66;5063327;28;20036;-68
2021/03/15 10:43:42;;;;;;;2.10;1.50;;;;;;;4.28;90.34;99190.97;5063226;28;20048;-68
2021/03/15 10:46:22;;;;;;;1.38;0.80;;;;;;;4.41;89.10;99194.38;5063284;28;20106;-68
2021/03/15 10:48:47;;;;;;;1.33;0.90;;;;;;;4.46;89.02;99199.50;5062831;28;20021;-67
2021/03/15 10:51:13;;;;;;;1.88;1.08;;;;;;;4.50;88.91;99206.38;5063424;28;20047;-67
2021/03/15 10:53:49;;;;;;;0.80;0.60;;;;;;;4.82;89.54;99214.81;5063198;28;20021;-68
2021/03/15 10:56:20;;;;;;;1.10;0.90;;;;;;;4.91;88.29;99209.63;5065025;28;20025;-68
2021/03/15 10:58:45;;;;;;;1.00;0.90;;;;;;;4.95;86.90;99221.63;5067258;28;20029;-66
2021/03/15 11:01:11;;;;;;;0.90;0.75;;;;;;;4.70;85.95;99216.59;5067191;28;20081;-67
2021/03/15 11:03:37;;;;;;;4.82;2.72;;;;;;;4.53;86.25;99233.78;5066724;28;20025;-66
2021/03/15 11:06:10;;;;;;;1.55;1.17;;;;;;;4.38;86.47;99230.38;5067149;28;20032;-66
2021/03/15 11:08:37;;;;;;;1.45;0.98;;;;;;;4.24;86.17;99234.69;5066793;28;20021;-68
2021/03/15 11:11:24;;;;;;;2.63;1.50;;;;;;;4.15;86.64;99259.53;5066962;28;20436;-67
2021/03/15 11:13:51;;;;;;;7.10;2.15;;;;;;;4.12;85.48;99240.69;5066714;28;20025;-69
2021/03/15 11:16:18;;;;;;;4.60;2.38;;;;;;;3.96;85.82;99259.53;5066880;28;20028;-68
2021/03/15 11:18:43;;;;;;;7.43;2.65;;;;;;;3.94;86.12;99260.38;5066551;28;20025;-66
2021/03/15 11:21:12;;;;;;;4.10;2.58;;;;;;;3.89;86.30;99267.22;5066927;28;20108;-66
2021/03/15 11:23:40;;;;;;;4.93;3.20;;;;;;;3.79;86.52;99276.63;5066719;28;20021;-66
2021/03/15 11:26:09;;;;;;;6.38;3.38;;;;;;;3.71;86.57;99258.66;5066936;28;20464;-69
2021/03/15 11:28:44;;;;;;;6.63;3.35;;;;;;;3.75;86.17;99272.34;5066264;28;20540;-65
2021/03/15 11:31:18;;;;;;;4.80;2.97;;;;;;;3.63;86.19;99271.47;5066617;28;20025;-66
2021/03/15 11:34:15;;;;;;;5.90;3.60;;;;;;;3.62;86.30;99289.44;5066310;28;20028;-66
2021/03/15 11:36:45;;;;;;;6.70;3.30;;;;;;;3.61;86.84;99283.44;5065556;28;20032;-66
2021/03/15 11:39:10;;;;;;;7.75;3.58;;;;;;;3.68;86.21;99274.91;5066117;28;20040;-66
2021/03/15 11:41:40;;;;;;;10.23;3.83;;;;;;;3.59;86.43;99292.88;5066392;28;20025;-66
2021/03/15 11:44:06;;;;;;;8.35;4.60;;;;;;;3.66;86.67;99304.03;5066121;28;20028;-66
2021/03/15 11:46:34;;;;;;;3.30;1.90;;;;;;;3.64;86.92;99309.16;5066323;28;20029;-67
2021/03/15 11:49:03;;;;;;;14.65;3.08;;;;;;;3.65;87.01;99310.84;5065965;28;20025;-67
2021/03/15 11:51:29;;;;;;;8.38;4.80;;;;;;;3.67;87.08;99308.28;5066197;28;20051;-65